createdAt,value
2019-03-10T00:00:18.207Z,100327.41
2019-03-10T00:02:46.712Z,100313.95
2019-03-10T00:05:15.247Z,100324.06
2019-03-10T00:07:43.703Z,100340.66
2019-03-10T00:10:12.325Z,100330.58
2019-03-10T00:12:40.774Z,100331.59
2019-03-10T00:15:11.371Z,100331.59
2019-03-10T00:17:39.877Z,100333.72
2019-03-10T00:20:11.817Z,100340.06
2019-03-10T00:22:40.275Z,100336.63
2019-03-10T00:25:10.119Z,100332.69
2019-03-10T00:27:38.569Z,100334.25
2019-03-10T00:30:17.863Z,100334.25
2019-03-10T00:32:46.329Z,100338.16
2019-03-10T00:35:14.861Z,100341.18
2019-03-10T00:37:43.415Z,100332.17
2019-03-10T00:40:34.568Z,100333.03
2019-03-10T00:43:39.634Z,100332.62
2019-03-10T00:46:30.619Z,100329.19
2019-03-10T00:49:35.922Z,100330.37
2019-03-10T00:52:07.390Z,100334.56
2019-03-10T00:54:36.235Z,100329.37
2019-03-10T00:57:04.807Z,100325.42
2019-03-10T00:59:33.327Z,100315.51
2019-03-10T01:02:01.862Z,100320.19
2019-03-10T01:04:30.366Z,100324.91
2019-03-10T01:06:58.890Z,100318.49
2019-03-10T01:09:27.378Z,100320.64
2019-03-10T01:11:55.938Z,100327.98
2019-03-10T01:14:24.464Z,100325.52
2019-03-10T01:16:52.954Z,100317.57
2019-03-10T01:19:23.049Z,100322.88
2019-03-10T01:21:51.928Z,100314.85
2019-03-10T01:24:20.476Z,100307.06
2019-03-10T01:26:48.956Z,100307.06
2019-03-10T01:29:17.421Z,100308.31
2019-03-10T01:32:05.593Z,100308.31
2019-03-10T01:34:56.909Z,100287.00
2019-03-10T01:37:25.414Z,100288.09
2019-03-10T01:39:53.872Z,100287.05
2019-03-10T01:42:22.341Z,100280.87
2019-03-10T01:44:50.826Z,100292.62
2019-03-10T01:47:19.289Z,100278.22
2019-03-10T01:49:47.764Z,100275.80
2019-03-10T01:52:16.255Z,100262.19
2019-03-10T01:54:44.723Z,100270.97
2019-03-10T01:57:13.164Z,100265.85
2019-03-10T01:59:41.675Z,100247.57
2019-03-10T02:02:10.134Z,100247.57
2019-03-10T02:04:38.583Z,100247.66
2019-03-10T02:07:07.090Z,100225.48
2019-03-10T02:09:35.563Z,100233.25
2019-03-10T02:12:04.014Z,100248.83
2019-03-10T02:14:32.626Z,100243.47
2019-03-10T02:17:01.135Z,100239.47
2019-03-10T02:19:29.579Z,100229.46
2019-03-10T02:21:58.065Z,100237.67
2019-03-10T02:24:26.647Z,100221.83
2019-03-10T02:26:55.107Z,100223.64
2019-03-10T02:29:23.612Z,100224.92
2019-03-10T02:31:52.058Z,100234.95
2019-03-10T02:34:20.511Z,100234.95
2019-03-10T02:36:49.009Z,100233.67
2019-03-10T02:39:17.470Z,100242.38
2019-03-10T02:41:45.928Z,100234.77
2019-03-10T02:44:14.423Z,100235.32
2019-03-10T02:46:42.865Z,100235.88
2019-03-10T02:49:11.336Z,100227.75
2019-03-10T02:51:39.834Z,100218.36
2019-03-10T02:54:08.293Z,100211.88
2019-03-10T02:56:36.748Z,100213.09
2019-03-10T02:59:05.239Z,100205.32
2019-03-10T03:01:33.681Z,100201.39
2019-03-10T03:04:02.146Z,100214.95
2019-03-10T03:06:30.648Z,100214.95
2019-03-10T03:08:59.126Z,100213.62
2019-03-10T03:11:27.671Z,100213.62
2019-03-10T03:13:56.157Z,100210.63
2019-03-10T03:16:24.608Z,100220.55
2019-03-10T03:18:53.055Z,100224.90
2019-03-10T03:21:21.551Z,100238.25
2019-03-10T03:23:50.010Z,100228.02
2019-03-10T03:26:19.581Z,100230.59
2019-03-10T03:28:48.074Z,100226.77
2019-03-10T03:31:16.546Z,100244.03
2019-03-10T03:33:45.002Z,100239.38
2019-03-10T03:36:19.351Z,100241.53
2019-03-10T03:38:56.541Z,100236.94
2019-03-10T03:41:26.071Z,100230.52
2019-03-10T03:43:54.542Z,100230.09
2019-03-10T03:46:22.965Z,100225.42
2019-03-10T03:48:51.457Z,100227.94
2019-03-10T03:51:19.905Z,100230.94
2019-03-10T03:53:48.410Z,100236.52
2019-03-10T03:56:16.856Z,100227.09
2019-03-10T03:58:45.323Z,100228.80
2019-03-10T04:01:15.418Z,100231.01
2019-03-10T04:03:44.002Z,100223.29
2019-03-10T04:06:12.453Z,100227.94
2019-03-10T04:08:40.925Z,100228.78
2019-03-10T04:11:09.387Z,100224.00
2019-03-10T04:13:37.845Z,100237.66
2019-03-10T04:16:06.294Z,100233.19
2019-03-10T04:18:34.778Z,100233.19
2019-03-10T04:21:03.234Z,100254.53
2019-03-10T04:23:31.690Z,100254.53
2019-03-10T04:26:00.161Z,100245.89
2019-03-10T04:28:28.923Z,100245.89
2019-03-10T04:30:57.376Z,100244.39
2019-03-10T04:33:25.849Z,100244.39
2019-03-10T04:35:54.297Z,100238.83
2019-03-10T04:38:22.762Z,100238.41
2019-03-10T04:40:51.253Z,100234.90
2019-03-10T04:43:19.726Z,100234.84
2019-03-10T04:45:48.189Z,100234.84
2019-03-10T04:48:16.679Z,100240.09
2019-03-10T04:50:45.144Z,100243.48
2019-03-10T04:53:13.613Z,100243.42
2019-03-10T04:55:46.398Z,100235.97
2019-03-10T04:58:16.436Z,100235.97
2019-03-10T05:00:46.524Z,100249.34
2019-03-10T05:03:15.015Z,100265.25
2019-03-10T05:05:43.490Z,100286.24
2019-03-10T05:08:11.952Z,100286.24
2019-03-10T05:10:40.446Z,100266.62
2019-03-10T05:13:08.893Z,100263.19
2019-03-10T05:15:37.356Z,100263.19
2019-03-10T05:18:05.909Z,100258.98
2019-03-10T05:20:34.366Z,100252.53
2019-03-10T05:23:28.135Z,100247.39
2019-03-10T05:25:57.027Z,100242.13
2019-03-10T05:28:25.476Z,100248.46
2019-03-10T05:30:54.075Z,100253.61
2019-03-10T05:33:22.536Z,100253.61
2019-03-10T05:35:50.989Z,100258.13
2019-03-10T05:38:19.568Z,100255.06
2019-03-10T05:40:48.021Z,100255.06
2019-03-10T05:43:16.489Z,100265.73
2019-03-10T05:45:44.997Z,100265.73
2019-03-10T05:48:13.443Z,100263.83
2019-03-10T05:50:41.892Z,100272.89
2019-03-10T05:53:10.412Z,100270.63
2019-03-10T05:55:38.890Z,100283.95
2019-03-10T05:58:07.341Z,100283.95
2019-03-10T06:00:42.804Z,100282.58
2019-03-10T06:03:06.018Z,100274.59
2019-03-10T06:05:34.488Z,100274.59
2019-03-10T06:08:02.984Z,100273.86
2019-03-10T06:10:31.450Z,100265.17
2019-03-10T06:12:59.973Z,100265.17
2019-03-10T06:15:28.467Z,100263.58
2019-03-10T06:17:56.925Z,100260.59
2019-03-10T06:20:25.371Z,100255.39
2019-03-10T06:22:53.875Z,100265.81
2019-03-10T06:25:22.345Z,100260.95
2019-03-10T06:27:50.844Z,100260.95
2019-03-10T06:30:19.334Z,100260.67
2019-03-10T06:32:47.912Z,100256.91
2019-03-10T06:35:16.370Z,100256.12
2019-03-10T06:37:44.885Z,100249.69
2019-03-10T06:40:14.000Z,100249.69
2019-03-10T06:42:42.471Z,100247.28
2019-03-10T06:45:11.038Z,100246.12
2019-03-10T06:47:39.476Z,100245.05
2019-03-10T06:50:12.245Z,100245.05
2019-03-10T06:52:40.486Z,100240.02
2019-03-10T06:55:09.032Z,100240.02
2019-03-10T06:57:37.480Z,100252.19
2019-03-10T07:00:09.394Z,100251.41
2019-03-10T07:02:37.864Z,100257.97
2019-03-10T07:05:08.652Z,100261.95
2019-03-10T07:07:37.138Z,100260.80
2019-03-10T07:10:15.772Z,100258.38
2019-03-10T07:12:44.261Z,100264.14
2019-03-10T07:15:13.750Z,100253.11
2019-03-10T07:17:42.217Z,100255.44
2019-03-10T07:20:16.527Z,100250.87
2019-03-10T07:22:44.972Z,100252.81
2019-03-10T07:25:13.516Z,100261.22
2019-03-10T07:27:58.743Z,100257.55
2019-03-10T07:30:31.645Z,100246.17
2019-03-10T07:33:04.485Z,100246.42
2019-03-10T07:35:35.026Z,100240.11
2019-03-10T07:38:07.971Z,100237.33
2019-03-10T07:40:38.127Z,100227.19
2019-03-10T07:43:08.223Z,100225.16
2019-03-10T07:45:41.214Z,100219.63
2019-03-10T07:48:14.065Z,100223.19
2019-03-10T07:50:49.649Z,100225.00
2019-03-10T07:53:32.021Z,100219.95
2019-03-10T07:56:17.470Z,100220.86
2019-03-10T07:58:56.484Z,100213.19
2019-03-10T08:01:26.582Z,100230.38
2019-03-10T08:03:59.403Z,100222.27
2019-03-10T08:06:38.711Z,100219.69
2019-03-10T08:09:25.701Z,100221.02
2019-03-10T08:12:04.630Z,100218.94
2019-03-10T08:14:34.741Z,100212.21
2019-03-10T08:17:11.028Z,100208.02
2019-03-10T08:19:41.142Z,100216.23
2019-03-10T08:22:20.264Z,100213.75
2019-03-10T08:25:06.702Z,100211.66
2019-03-10T08:27:36.843Z,100202.73
2019-03-10T08:30:15.805Z,100195.09
2019-03-10T08:32:45.984Z,100187.01
2019-03-10T08:35:19.043Z,100178.94
2019-03-10T08:38:05.501Z,100183.81
2019-03-10T08:40:38.370Z,100182.27
2019-03-10T08:43:08.470Z,100169.02
2019-03-10T08:45:56.621Z,100166.14
2019-03-10T08:48:29.185Z,100168.80
2019-03-10T08:50:59.299Z,100165.06
2019-03-10T08:53:38.675Z,100163.03
2019-03-10T08:56:11.688Z,100148.91
2019-03-10T08:58:41.789Z,100152.78
2019-03-10T09:01:28.488Z,100144.22
2019-03-10T09:03:58.576Z,100145.08
2019-03-10T09:06:40.942Z,100143.86
2019-03-10T09:09:11.033Z,100137.88
2019-03-10T09:11:57.483Z,100131.89
2019-03-10T09:14:36.423Z,100133.25
2019-03-10T09:17:06.549Z,100128.55
2019-03-10T09:19:45.587Z,100131.60
2019-03-10T09:22:51.268Z,100114.85
2019-03-10T09:25:37.471Z,100113.98
2019-03-10T09:28:07.600Z,100120.55
2019-03-10T09:30:50.878Z,100117.25
2019-03-10T09:33:23.925Z,100118.31
2019-03-10T09:35:54.012Z,100111.94
2019-03-10T09:38:39.466Z,100116.78
2019-03-10T09:41:24.479Z,100114.31
2019-03-10T09:44:03.951Z,100108.83
2019-03-10T09:46:43.016Z,100111.99
2019-03-10T09:49:16.349Z,100103.05
2019-03-10T09:51:46.448Z,100103.58
2019-03-10T09:54:28.557Z,100098.09
2019-03-10T09:57:07.748Z,100100.81
2019-03-10T09:59:54.543Z,100088.41
2019-03-10T10:02:27.293Z,100096.68
2019-03-10T10:05:09.087Z,100085.95
2019-03-10T10:07:54.171Z,100086.84
2019-03-10T10:10:24.316Z,100077.31
2019-03-10T10:12:54.430Z,100071.70
2019-03-10T10:15:42.703Z,100074.34
2019-03-10T10:18:21.286Z,100070.90
2019-03-10T10:20:57.161Z,100063.59
2019-03-10T10:23:33.050Z,100049.80
2019-03-10T10:26:05.913Z,100055.86
2019-03-10T10:28:47.892Z,100051.11
2019-03-10T10:31:33.991Z,100049.40
2019-03-10T10:34:19.243Z,100044.66
2019-03-10T10:37:04.352Z,100033.02
2019-03-10T10:39:49.442Z,100033.06
2019-03-10T10:42:25.259Z,100041.30
2019-03-10T10:45:01.501Z,100041.34
2019-03-10T10:47:34.239Z,100037.89
2019-03-10T10:50:13.971Z,100036.62
2019-03-10T10:52:44.229Z,100029.23
2019-03-10T10:55:17.060Z,100025.34
2019-03-10T10:57:49.637Z,100014.54
2019-03-10T11:00:19.810Z,100015.40
2019-03-10T11:02:52.850Z,100012.84
2019-03-10T11:05:23.021Z,100018.05
2019-03-10T11:07:53.125Z,100019.37
2019-03-10T11:10:23.243Z,100009.48
2019-03-10T11:12:53.381Z,100004.73
2019-03-10T11:15:25.993Z,100000.45
2019-03-10T11:18:09.761Z,100002.63
2019-03-10T11:20:40.035Z,99997.44
2019-03-10T11:23:10.139Z,99999.63
2019-03-10T11:25:40.284Z,99993.16
2019-03-10T11:28:26.487Z,99990.57
2019-03-10T11:30:56.621Z,99979.74
2019-03-10T11:33:29.646Z,99980.20
2019-03-10T11:36:11.719Z,99979.32
2019-03-10T11:39:00.049Z,99971.52
2019-03-10T11:41:34.088Z,99969.37
2019-03-10T11:44:14.281Z,99957.27
2019-03-10T11:46:47.098Z,99947.78
2019-03-10T11:49:17.222Z,99941.30
2019-03-10T11:51:47.307Z,99938.68
2019-03-10T11:54:25.975Z,99930.92
2019-03-10T11:57:05.040Z,99920.96
2019-03-10T11:59:35.162Z,99909.72
2019-03-10T12:02:16.180Z,99904.54
2019-03-10T12:04:42.581Z,99903.26
2019-03-10T12:07:12.695Z,99898.06
2019-03-10T12:09:41.132Z,99889.86
2019-03-10T12:12:09.597Z,99887.69
2019-03-10T12:14:38.073Z,99882.05
2019-03-10T12:17:06.541Z,99880.34
2019-03-10T12:19:35.056Z,99874.27
2019-03-10T12:22:03.524Z,99866.07
2019-03-10T12:24:31.989Z,99867.36
2019-03-10T12:27:00.462Z,99868.66
2019-03-10T12:29:28.905Z,99865.65
2019-03-10T12:31:57.363Z,99853.11
2019-03-10T12:34:25.854Z,99848.76
2019-03-10T12:36:54.313Z,99844.86
2019-03-10T12:39:22.784Z,99847.03
2019-03-10T12:41:58.577Z,99847.45
2019-03-10T12:44:22.526Z,99840.95
2019-03-10T12:46:51.014Z,99843.55
2019-03-10T12:49:20.405Z,99837.05
2019-03-10T12:51:48.872Z,99836.16
2019-03-10T12:54:17.338Z,99832.27
2019-03-10T12:56:45.872Z,99822.31
2019-03-10T12:59:14.310Z,99819.30
2019-03-10T13:01:42.757Z,99818.85
2019-03-10T13:04:11.258Z,99823.59
2019-03-10T13:06:39.729Z,99816.23
2019-03-10T13:09:08.650Z,99801.49
2019-03-10T13:11:37.188Z,99792.84
2019-03-10T13:14:05.656Z,99753.50
2019-03-10T13:16:34.112Z,99781.56
2019-03-10T13:19:02.619Z,99774.63
2019-03-10T13:21:31.089Z,99780.69
2019-03-10T13:23:59.619Z,99774.61
2019-03-10T13:26:28.124Z,99765.07
2019-03-10T13:28:56.595Z,99762.03
2019-03-10T13:31:25.063Z,99760.27
2019-03-10T13:33:53.552Z,99758.13
2019-03-10T13:36:22.018Z,99749.47
2019-03-10T13:38:50.477Z,99739.52
2019-03-10T13:41:19.072Z,99735.63
2019-03-10T13:43:47.683Z,99729.57
2019-03-10T13:46:16.147Z,99724.77
2019-03-10T13:48:44.662Z,99718.70
2019-03-10T13:51:13.127Z,99711.29
2019-03-10T13:53:41.581Z,99711.71
2019-03-10T13:56:10.074Z,99706.92
2019-03-10T13:58:38.541Z,99700.43
2019-03-10T14:01:06.998Z,99697.48
2019-03-10T14:03:35.485Z,99694.04
2019-03-10T14:06:04.013Z,99686.74
2019-03-10T14:08:32.470Z,99679.88
2019-03-10T14:11:00.975Z,99681.22
2019-03-10T14:13:29.432Z,99673.02
2019-03-10T14:15:57.917Z,99669.55
2019-03-10T14:18:26.388Z,99657.48
2019-03-10T14:20:54.847Z,99662.28
2019-03-10T14:23:23.308Z,99655.80
2019-03-10T14:25:51.819Z,99654.09
2019-03-10T14:28:22.068Z,99654.52
2019-03-10T14:30:50.466Z,99648.50
2019-03-10T14:33:18.958Z,99644.61
2019-03-10T14:35:47.424Z,99646.31
2019-03-10T14:38:15.894Z,99642.01
2019-03-10T14:40:44.400Z,99634.25
2019-03-10T14:43:12.860Z,99626.03
2019-03-10T14:45:42.317Z,99616.09
2019-03-10T14:48:10.800Z,99615.23
2019-03-10T14:50:39.262Z,99605.32
2019-03-10T14:53:07.724Z,99607.08
2019-03-10T14:55:36.375Z,99606.22
2019-03-10T14:58:04.842Z,99612.27
2019-03-10T15:00:33.304Z,99603.59
2019-03-10T15:03:01.795Z,99595.81
2019-03-10T15:05:30.256Z,99593.24
2019-03-10T15:07:58.714Z,99593.27
2019-03-10T15:10:27.203Z,99590.69
2019-03-10T15:12:55.680Z,99595.02
2019-03-10T15:15:24.124Z,99589.84
2019-03-10T15:17:52.626Z,99585.97
2019-03-10T15:20:21.834Z,99582.54
2019-03-10T15:22:50.495Z,99591.19
2019-03-10T15:25:20.243Z,99589.48
2019-03-10T15:27:48.683Z,99589.08
2019-03-10T15:30:18.772Z,99594.71
2019-03-10T15:32:47.273Z,99596.02
2019-03-10T15:35:15.797Z,99602.48
2019-03-10T15:37:44.387Z,99607.67
2019-03-10T15:40:18.084Z,99610.74
2019-03-10T15:42:46.538Z,99606.43
2019-03-10T15:45:18.895Z,99606.01
2019-03-10T15:47:48.463Z,99603.41
2019-03-10T15:50:28.222Z,99605.59
2019-03-10T15:52:56.754Z,99602.98
2019-03-10T15:55:25.214Z,99591.34
2019-03-10T15:57:53.675Z,99588.73
2019-03-10T16:00:24.294Z,99585.28
2019-03-10T16:02:52.811Z,99588.72
2019-03-10T16:05:21.346Z,99589.61
2019-03-10T16:07:49.887Z,99590.45
2019-03-10T16:10:18.484Z,99580.53
2019-03-10T16:12:49.303Z,99579.67
2019-03-10T16:15:21.969Z,99588.31
2019-03-10T16:17:50.423Z,99581.82
2019-03-10T16:20:18.866Z,99580.52
2019-03-10T16:22:47.364Z,99575.34
2019-03-10T16:25:16.862Z,99571.45
2019-03-10T16:27:45.393Z,99577.91
2019-03-10T16:30:19.845Z,99581.79
2019-03-10T16:32:48.328Z,99580.50
2019-03-10T16:35:17.004Z,99578.77
2019-03-10T16:37:45.564Z,99576.60
2019-03-10T16:40:17.203Z,99577.44
2019-03-10T16:42:45.749Z,99567.97
2019-03-10T16:45:19.403Z,99557.17
2019-03-10T16:47:47.879Z,99551.14
2019-03-10T16:50:18.588Z,99554.56
2019-03-10T16:52:47.081Z,99561.03
2019-03-10T16:55:15.676Z,99563.64
2019-03-10T16:57:44.278Z,99566.64
2019-03-10T17:00:12.927Z,99575.23
2019-03-10T17:02:43.185Z,99584.27
2019-03-10T17:05:18.976Z,99594.59
2019-03-10T17:07:47.490Z,99587.23
2019-03-10T17:10:17.684Z,99597.13
2019-03-10T17:12:46.258Z,99594.56
2019-03-10T17:15:18.959Z,99604.45
2019-03-10T17:17:47.387Z,99609.58
2019-03-10T17:20:19.355Z,99618.57
2019-03-10T17:22:47.803Z,99617.64
2019-03-10T17:25:16.783Z,99618.45
2019-03-10T17:27:45.325Z,99622.24
2019-03-10T17:30:21.621Z,99610.55
2019-03-10T17:32:50.205Z,99601.87
2019-03-10T17:35:19.391Z,99602.22
2019-03-10T17:37:48.728Z,99609.45
2019-03-10T17:40:22.286Z,99608.95
2019-03-10T17:42:50.722Z,99625.66
2019-03-10T17:45:20.319Z,99629.86
2019-03-10T17:47:48.834Z,99631.91
2019-03-10T17:50:18.143Z,99623.23
2019-03-10T17:52:47.336Z,99605.97
2019-03-10T17:55:17.372Z,99587.46
2019-03-10T17:57:45.986Z,99617.52
2019-03-10T18:00:17.738Z,99621.78
2019-03-10T18:02:46.278Z,99633.83
2019-03-10T18:05:14.819Z,99637.17
2019-03-10T18:07:43.336Z,99638.84
2019-03-10T18:10:18.544Z,99643.94
2019-03-10T18:12:47.006Z,99649.89
2019-03-10T18:15:18.713Z,99651.13
2019-03-10T18:17:47.216Z,99655.81
2019-03-10T18:20:20.854Z,99664.77
2019-03-10T18:22:49.310Z,99667.34
2019-03-10T18:25:17.864Z,99669.92
2019-03-10T18:27:46.305Z,99669.09
2019-03-10T18:30:19.861Z,99672.11
2019-03-10T18:32:48.373Z,99686.24
2019-03-10T18:35:16.892Z,99687.93
2019-03-10T18:37:46.023Z,99694.80
2019-03-10T18:40:21.412Z,99697.77
2019-03-10T18:42:49.891Z,99701.17
2019-03-10T18:45:19.586Z,99699.86
2019-03-10T18:47:48.086Z,99704.58
2019-03-10T18:50:18.459Z,99708.84
2019-03-10T18:52:47.007Z,99709.70
2019-03-10T18:55:16.823Z,99711.84
2019-03-10T18:57:45.282Z,99714.81
2019-03-10T19:00:24.848Z,99711.37
2019-03-10T19:02:55.127Z,99726.87
2019-03-10T19:05:23.653Z,99732.42
2019-03-10T19:07:52.149Z,99734.56
2019-03-10T19:10:20.618Z,99740.97
2019-03-10T19:12:49.071Z,99745.69
2019-03-10T19:15:24.723Z,99749.48
2019-03-10T19:17:53.230Z,99758.42
2019-03-10T19:20:21.694Z,99763.26
2019-03-10T19:22:50.174Z,99761.11
2019-03-10T19:25:19.653Z,99764.98
2019-03-10T19:27:48.099Z,99761.47
2019-03-10T19:30:21.220Z,99769.19
2019-03-10T19:32:49.694Z,99775.98
2019-03-10T19:35:18.239Z,99781.52
2019-03-10T19:37:46.721Z,99782.73
2019-03-10T19:40:18.982Z,99786.13
2019-03-10T19:42:47.453Z,99791.19
2019-03-10T19:45:18.141Z,99797.98
2019-03-10T19:47:46.591Z,99800.47
2019-03-10T19:50:17.554Z,99804.72
2019-03-10T19:52:46.051Z,99808.06
2019-03-10T19:55:15.894Z,99822.17
2019-03-10T19:57:44.344Z,99821.66
2019-03-10T20:00:15.549Z,99828.42
2019-03-10T20:02:43.993Z,99836.06
2019-03-10T20:05:12.980Z,99832.13
2019-03-10T20:07:41.456Z,99832.50
2019-03-10T20:10:21.415Z,99838.45
2019-03-10T20:12:49.968Z,99849.98
2019-03-10T20:15:19.746Z,99852.55
2019-03-10T20:17:48.205Z,99857.18
2019-03-10T20:20:27.643Z,99859.27
2019-03-10T20:22:56.163Z,99861.37
2019-03-10T20:25:24.606Z,99869.03
2019-03-10T20:27:53.093Z,99880.09
2019-03-10T20:30:22.685Z,99882.17
2019-03-10T20:32:51.206Z,99880.40
2019-03-10T20:35:19.718Z,99891.88
2019-03-10T20:37:48.135Z,99894.40
2019-03-10T20:40:22.693Z,99899.91
2019-03-10T20:42:51.645Z,99913.96
2019-03-10T20:45:20.159Z,99913.96
2019-03-10T20:47:48.690Z,99919.91
2019-03-10T20:50:19.271Z,99927.14
2019-03-10T20:52:47.736Z,99928.41
2019-03-10T20:55:16.373Z,99940.78
2019-03-10T20:57:45.235Z,99940.73
2019-03-10T21:00:27.945Z,99946.68
2019-03-10T21:02:56.434Z,99949.25
2019-03-10T21:05:24.889Z,99967.02
2019-03-10T21:07:53.363Z,99967.02
2019-03-10T21:10:23.074Z,99974.34
2019-03-10T21:12:51.533Z,99981.14
2019-03-10T21:15:22.176Z,99982.38
2019-03-10T21:17:50.733Z,99989.59
2019-03-10T21:20:20.329Z,99991.73
2019-03-10T21:22:48.787Z,100001.83
2019-03-10T21:25:20.083Z,100001.83
2019-03-10T21:27:48.539Z,100019.84
2019-03-10T21:30:22.432Z,100021.92
2019-03-10T21:32:50.943Z,100034.41
2019-03-10T21:35:19.397Z,100037.84
2019-03-10T21:37:47.858Z,100047.31
2019-03-10T21:40:19.166Z,100052.89
2019-03-10T21:42:47.641Z,100065.38
2019-03-10T21:45:16.330Z,100076.99
2019-03-10T21:47:44.850Z,100076.99
2019-03-10T21:50:15.339Z,100071.75
2019-03-10T21:52:43.789Z,100083.42
2019-03-10T21:55:13.742Z,100089.38
2019-03-10T21:57:42.381Z,100094.94
2019-03-10T22:00:17.091Z,100094.44
2019-03-10T22:02:45.642Z,100119.66
2019-03-10T22:05:15.251Z,100119.66
2019-03-10T22:07:43.875Z,100122.09
2019-03-10T22:10:26.373Z,100135.02
2019-03-10T22:12:47.421Z,100135.37
2019-03-10T22:15:19.068Z,100139.17
2019-03-10T22:17:47.630Z,100158.31
2019-03-10T22:20:19.811Z,100159.86
2019-03-10T22:22:49.844Z,100170.17
2019-03-10T22:25:19.788Z,100169.67
2019-03-10T22:27:48.309Z,100178.66
2019-03-10T22:30:18.774Z,100178.66
2019-03-10T22:32:47.267Z,100189.50
2019-03-10T22:35:15.778Z,100189.50
2019-03-10T22:37:44.237Z,100203.22
2019-03-10T22:40:17.938Z,100203.22
2019-03-10T22:42:46.392Z,100197.13
2019-03-10T22:45:19.827Z,100204.92
2019-03-10T22:47:48.372Z,100210.50
2019-03-10T22:50:17.695Z,100224.36
2019-03-10T22:52:46.514Z,100232.12
2019-03-10T22:55:15.758Z,100237.34
2019-03-10T22:57:44.212Z,100236.56
2019-03-10T23:00:18.154Z,100242.20
2019-03-10T23:02:47.022Z,100249.55
2019-03-10T23:05:15.553Z,100248.34
2019-03-10T23:07:44.092Z,100254.89
2019-03-10T23:10:14.486Z,100256.67
2019-03-10T23:12:42.941Z,100264.47
2019-03-10T23:15:13.325Z,100261.95
2019-03-10T23:17:41.826Z,100265.83
2019-03-10T23:20:14.702Z,100274.47
2019-03-10T23:22:43.143Z,100279.25
2019-03-10T23:25:11.780Z,100287.47
2019-03-10T23:27:40.419Z,100290.48
2019-03-10T23:30:12.329Z,100290.45
2019-03-10T23:32:40.816Z,100293.47
2019-03-10T23:35:09.346Z,100304.48
2019-03-10T23:37:37.785Z,100304.05
2019-03-10T23:40:08.981Z,100307.40
2019-03-10T23:42:37.442Z,100307.76
2019-03-10T23:45:11.314Z,100310.27
2019-03-10T23:47:39.811Z,100310.70
2019-03-10T23:50:10.417Z,100324.81
2019-03-10T23:52:38.865Z,100327.33
2019-03-10T23:55:09.388Z,100328.97
2019-03-10T23:57:37.839Z,100334.95
